Pagina principale
METAR-TAF:

METAR-TAF

Aeroporti :

Khark, Iran

latitudine: 29-15-34N, longitudine: 50-19-24E, altezza: 5 m

Osservazione

Il bollettino è stato emesso 2 ore e 12 minuti fa, alle 15:00 UTC
Vento 16 kt da ovest/nord-ovest
Temperature 35°C
Umidità 50%
Pressione 999 hPa
Visibilità 10 km o più
nessuna nube inferiore a 1500 m e nessun cumulonembo

METAR: OIBQ 051500Z 30016KT CAVOK 35/23 Q0999

Ora: 21:42 (17:12 UTC)


TAF: mancante

Osservazioni e previsioni meteorologiche di più di 4000 aeroporti (messaggi METAR e TAF).

Le stazioni disponibili sono rappresentate dai dischi gialli e rossi sulla carta.

Puntare il mouse per vedere il nome della stazione.

Clicca sopra per visualizzare le osservazioni e previsioni meteorologiche.

Per cambiare la mappa : fare clic sui pulsanti verdi con una croce nera per ingrandire, il pulsante verde con un trattino per diminuire, o sulla freccia verde per le mappe adiacenti.


METAR-TAF: